Time;durP1;ratioP1;P1;durP2;ratioP2;P2;SDS_P1;SDS_P2;PMS_P1;PMS_P2;Temp;Humidity;BMP_temperature;BMP_pressure;BME280_temperature;BME280_humidity;BME280_pressure;Samples;Min_cycle;Max_cycle;Signal;HPM_P1;HPM_P2
2022/05/24 00:02:04;;;;;;;9.40;1.48;;;;;;;;;;5021519;28;20076;-72
2022/05/24 00:04:31;;;;;;;9.35;1.55;;;;;;;;;;5019164;28;20110;-72
2022/05/24 00:06:57;;;;;;;5.28;1.48;;;;;;;;;;5019434;28;20029;-72
2022/05/24 00:09:23;;;;;;;7.32;2.50;;;;;;;;;;5018837;28;20050;-72
2022/05/24 00:11:49;;;;;;;5.63;1.65;;;;;;;;;;5022147;28;20030;-72
2022/05/24 00:15:19;;;;;;;8.55;2.60;;;;;;;;;;5024966;28;20033;-72
2022/05/24 00:17:01;;;;;;;7.78;2.20;;;;;;;;;;5020394;28;20044;-72
2022/05/24 00:19:27;;;;;;;9.65;2.63;;;;;;;;;;5022121;28;20112;-72
2022/05/24 00:21:53;;;;;;;10.02;3.60;;;;;;;;;;5017599;28;20084;-72
2022/05/24 00:24:19;;;;;;;7.70;3.00;;;;;;;;;;5023784;28;20048;-72
2022/05/24 00:26:46;;;;;;;7.22;1.90;;;;;;;;;;5017339;28;20045;-72
2022/05/24 00:29:12;;;;;;;6.30;1.85;;;;;;;;;;5023735;28;20132;-72
2022/05/24 00:31:38;;;;;;;9.55;1.60;;;;;;;;;;5022954;28;20084;-72
2022/05/24 00:34:04;;;;;;;4.85;1.33;;;;;;;;;;5022696;28;20491;-72
2022/05/24 00:36:30;;;;;;;9.30;1.52;;;;;;;;;;5025018;28;20025;-72
2022/05/24 00:38:56;;;;;;;5.32;1.17;;;;;;;;;;5025614;28;20089;-72
2022/05/24 00:41:26;;;;;;;8.82;1.40;;;;;;;;;;5020966;28;20030;-72
2022/05/24 00:43:58;;;;;;;9.45;1.30;;;;;;;;;;5021646;28;20038;-72
2022/05/24 00:46:26;;;;;;;10.25;1.38;;;;;;;;;;5022518;28;20615;-72
2022/05/24 00:48:56;;;;;;;6.95;1.20;;;;;;;;;;5021667;28;20037;-72
2022/05/24 00:51:33;;;;;;;8.75;1.65;;;;;;;;;;5024178;28;20079;-72
2022/05/24 00:53:59;;;;;;;7.85;1.40;;;;;;;;;;5016810;28;20120;-72
2022/05/24 00:56:44;;;;;;;7.68;1.20;;;;;;;;;;5019879;28;22126;-72
2022/05/24 00:59:17;;;;;;;7.35;1.25;;;;;;;;;;5020291;28;20083;-72
2022/05/24 01:01:46;;;;;;;7.18;1.30;;;;;;;;;;5021140;28;20033;-72
2022/05/24 01:04:14;;;;;;;5.75;1.20;;;;;;;;;;5022427;28;20034;-72
2022/05/24 01:06:40;;;;;;;5.55;1.08;;;;;;;;;;5021602;28;20542;-72
2022/05/24 01:09:18;;;;;;;4.22;1.10;;;;;;;;;;5023701;28;20497;-72
2022/05/24 01:11:46;;;;;;;6.70;1.05;;;;;;;;;;5023989;28;20030;-72
2022/05/24 01:14:14;;;;;;;9.15;1.65;;;;;;;;;;5022438;28;20498;-72
2022/05/24 01:16:41;;;;;;;8.80;1.67;;;;;;;;;;5024146;28;20036;-72
2022/05/24 01:19:10;;;;;;;18.23;1.52;;;;;;;;;;5023627;28;20049;-72
2022/05/24 01:21:38;;;;;;;4.88;1.10;;;;;;;;;;5020224;28;20068;-72
2022/05/24 01:24:13;;;;;;;11.20;1.58;;;;;;;;;;5023551;28;20117;-72
2022/05/24 01:26:50;;;;;;;5.20;1.15;;;;;;;;;;5024980;28;20120;-72
2022/05/24 01:29:17;;;;;;;7.50;1.33;;;;;;;;;;5016341;28;20091;-72
2022/05/24 01:37:13;;;;;;;6.20;1.10;;;;;;;;;;5018627;28;20111;-72
2022/05/24 01:39:40;;;;;;;6.05;1.02;;;;;;;;;;5015593;28;20084;-72
2022/05/24 01:42:06;;;;;;;7.78;1.55;;;;;;;;;;5024661;28;20028;-72
2022/05/24 01:44:36;;;;;;;5.80;1.20;;;;;;;;;;5019753;28;20037;-72
2022/05/24 01:47:02;;;;;;;7.55;1.88;;;;;;;;;;5021636;28;20026;-72
2022/05/24 01:49:30;;;;;;;6.85;1.20;;;;;;;;;;5016894;28;20033;-72
2022/05/24 01:51:59;;;;;;;5.10;1.30;;;;;;;;;;5019978;28;20022;-72
2022/05/24 01:54:26;;;;;;;7.78;1.13;;;;;;;;;;5020881;28;20154;-72
2022/05/24 01:57:00;;;;;;;8.93;1.40;;;;;;;;;;5021201;28;20030;-72
2022/05/24 01:59:27;;;;;;;4.80;1.30;;;;;;;;;;5022649;28;20088;-72
2022/05/24 02:01:55;;;;;;;5.57;1.48;;;;;;;;;;5023314;28;20038;-72
2022/05/24 02:04:22;;;;;;;8.02;1.23;;;;;;;;;;5022084;28;20132;-72
2022/05/24 02:07:17;;;;;;;7.60;1.17;;;;;;;;;;5019841;28;20072;-72
2022/05/24 02:09:45;;;;;;;9.38;1.42;;;;;;;;;;5013901;28;20693;-72
2022/05/24 02:12:18;;;;;;;9.75;1.85;;;;;;;;;;5024820;28;20124;-72
2022/05/24 02:14:48;;;;;;;20.27;4.07;;;;;;;;;;5023168;28;20025;-72
2022/05/24 02:17:16;;;;;;;15.23;2.70;;;;;;;;;;5022661;28;20030;-72
2022/05/24 02:19:45;;;;;;;13.18;2.15;;;;;;;;;;5019529;28;20105;-72
2022/05/24 02:22:15;;;;;;;11.30;2.67;;;;;;;;;;5022365;28;20034;-72
2022/05/24 02:24:40;;;;;;;15.57;3.10;;;;;;;;;;5017513;28;20034;-72
2022/05/24 02:27:07;;;;;;;14.25;3.75;;;;;;;;;;5019915;28;20052;-72
2022/05/24 02:29:33;;;;;;;9.75;2.22;;;;;;;;;;5023788;28;20030;-72
2022/05/24 02:31:59;;;;;;;7.65;2.50;;;;;;;;;;5022822;28;20033;-72
2022/05/24 02:34:25;;;;;;;9.20;2.20;;;;;;;;;;5023432;28;20073;-72
2022/05/24 02:36:51;;;;;;;8.90;2.13;;;;;;;;;;5020348;28;20030;-72
2022/05/24 02:39:17;;;;;;;9.95;1.52;;;;;;;;;;5016070;28;20052;-72
2022/05/24 02:41:43;;;;;;;8.32;2.33;;;;;;;;;;5023232;28;20029;-72
2022/05/24 02:44:10;;;;;;;7.88;1.80;;;;;;;;;;5013877;28;20041;-72
2022/05/24 02:46:38;;;;;;;7.05;1.85;;;;;;;;;;5021755;28;20033;-72
2022/05/24 02:49:04;;;;;;;9.70;1.63;;;;;;;;;;5020100;28;20083;-72
2022/05/24 02:51:30;;;;;;;8.93;1.67;;;;;;;;;;5021522;28;20037;-72
2022/05/24 02:53:56;;;;;;;8.98;1.92;;;;;;;;;;5019301;28;20075;-72
2022/05/24 02:56:22;;;;;;;11.75;1.60;;;;;;;;;;5021845;28;20071;-72
2022/05/24 02:58:49;;;;;;;10.45;2.17;;;;;;;;;;5021598;28;20041;-72
2022/05/24 03:01:19;;;;;;;11.55;2.70;;;;;;;;;;5016278;28;20483;-72
2022/05/24 03:03:46;;;;;;;10.57;2.67;;;;;;;;;;5019232;28;20045;-72
2022/05/24 03:06:12;;;;;;;10.23;2.83;;;;;;;;;;5019215;28;20057;-72
2022/05/24 03:11:23;;;;;;;8.27;3.67;;;;;;;;;;5021244;28;20117;-72
2022/05/24 03:16:33;;;;;;;9.82;4.53;;;;;;;;;;5021650;28;20399;-72
2022/05/24 03:19:00;;;;;;;9.25;4.05;;;;;;;;;;5019390;28;20046;-72
2022/05/24 03:21:26;;;;;;;12.13;4.25;;;;;;;;;;5024055;28;20030;-72
2022/05/24 03:23:52;;;;;;;12.18;4.68;;;;;;;;;;5021430;28;20048;-72
2022/05/24 03:26:18;;;;;;;11.88;6.43;;;;;;;;;;5020650;28;20045;-72
2022/05/24 03:28:46;;;;;;;18.38;11.02;;;;;;;;;;5018918;28;20160;-72
2022/05/24 03:31:13;;;;;;;21.10;14.32;;;;;;;;;;5021095;28;20021;-72
2022/05/24 03:33:39;;;;;;;20.65;13.90;;;;;;;;;;5018667;28;20091;-72
2022/05/24 03:36:06;;;;;;;17.38;11.75;;;;;;;;;;5023791;28;20420;-72
2022/05/24 03:38:32;;;;;;;15.27;10.85;;;;;;;;;;5026885;28;20041;-72
2022/05/24 03:40:58;;;;;;;19.70;14.90;;;;;;;;;;5027931;28;20459;-72
2022/05/24 03:43:26;;;;;;;16.25;10.77;;;;;;;;;;5028014;28;20826;-72
2022/05/24 03:46:06;;;;;;;13.90;8.20;;;;;;;;;;5026249;28;20033;-72
2022/05/24 03:48:33;;;;;;;14.93;8.57;;;;;;;;;;5022368;28;20414;-72
2022/05/24 03:50:59;;;;;;;17.30;11.93;;;;;;;;;;5023299;28;20034;-72
2022/05/24 03:53:25;;;;;;;14.50;10.45;;;;;;;;;;5028501;28;20554;-71
2022/05/24 03:55:51;;;;;;;19.00;11.57;;;;;;;;;;5027389;28;20092;-72
2022/05/24 03:58:18;;;;;;;14.98;8.35;;;;;;;;;;5023734;28;20053;-72
2022/05/24 04:00:44;;;;;;;11.63;4.55;;;;;;;;;;5025393;28;20030;-72
2022/05/24 04:03:10;;;;;;;10.05;3.78;;;;;;;;;;5025553;28;20096;-72
2022/05/24 04:05:37;;;;;;;13.85;6.22;;;;;;;;;;5019161;28;20033;-72
2022/05/24 04:08:03;;;;;;;13.13;6.45;;;;;;;;;;5027333;28;20124;-72
2022/05/24 04:10:30;;;;;;;14.20;5.93;;;;;;;;;;5015584;28;20034;-72
2022/05/24 04:12:56;;;;;;;12.02;6.20;;;;;;;;;;5024275;28;20036;-72
2022/05/24 04:15:23;;;;;;;12.88;7.18;;;;;;;;;;5020130;28;20607;-72
2022/05/24 04:17:49;;;;;;;11.73;5.80;;;;;;;;;;5022793;28;20039;-72
2022/05/24 04:20:16;;;;;;;13.43;4.78;;;;;;;;;;5021839;28;20073;-72
2022/05/24 04:22:43;;;;;;;12.30;5.93;;;;;;;;;;5022960;28;20045;-71
2022/05/24 04:25:10;;;;;;;13.80;6.55;;;;;;;;;;5023033;28;20048;-72
2022/05/24 04:27:36;;;;;;;12.82;5.75;;;;;;;;;;5038618;28;20064;-72
2022/05/24 04:30:03;;;;;;;11.50;5.35;;;;;;;;;;5025677;28;20025;-72
2022/05/24 04:32:29;;;;;;;11.00;5.07;;;;;;;;;;5021225;28;20088;-72
2022/05/24 04:34:55;;;;;;;13.00;5.68;;;;;;;;;;5025858;28;20033;-72
2022/05/24 04:37:21;;;;;;;16.95;11.75;;;;;;;;;;5018355;28;20045;-72
2022/05/24 04:39:47;;;;;;;19.30;13.90;;;;;;;;;;5024514;28;20036;-72
2022/05/24 04:42:19;;;;;;;20.73;13.60;;;;;;;;;;5023040;28;20668;-72
2022/05/24 04:44:45;;;;;;;;;;;;;;;;;;5022670;28;20029;-72
2022/05/24 04:47:13;;;;;;;23.75;19.10;;;;;;;;;;5021381;28;20262;-72
2022/05/24 04:49:40;;;;;;;21.83;14.52;;;;;;;;;;5025706;28;20033;-72
2022/05/24 04:52:07;;;;;;;13.50;10.85;;;;;;;;;;5025199;28;20059;-72
2022/05/24 04:54:34;;;;;;;17.77;11.27;;;;;;;;;;5025128;28;20041;-72
2022/05/24 04:57:00;;;;;;;13.15;8.60;;;;;;;;;;5025846;28;20454;-72
2022/05/24 04:59:26;;;;;;;11.77;5.18;;;;;;;;;;5019844;28;20045;-72
2022/05/24 05:01:52;;;;;;;13.15;4.80;;;;;;;;;;5020833;28;20103;-72
2022/05/24 05:04:19;;;;;;;12.10;4.93;;;;;;;;;;5021739;28;20475;-72
2022/05/24 05:06:46;;;;;;;10.90;5.07;;;;;;;;;;5024342;28;20086;-72
2022/05/24 05:09:12;;;;;;;9.77;6.00;;;;;;;;;;5020354;28;20124;-72
2022/05/24 05:11:39;;;;;;;9.63;4.10;;;;;;;;;;5020209;28;20754;-71
2022/05/24 05:14:05;;;;;;;8.93;3.05;;;;;;;;;;5021940;28;20056;-72
2022/05/24 05:16:31;;;;;;;10.95;3.92;;;;;;;;;;5025057;28;20033;-72
2022/05/24 05:18:57;;;;;;;13.57;3.63;;;;;;;;;;5022207;28;20108;-72
2022/05/24 05:21:23;;;;;;;8.27;2.70;;;;;;;;;;5018499;28;20103;-72
2022/05/24 05:23:49;;;;;;;6.05;2.08;;;;;;;;;;5022942;28;20042;-72
2022/05/24 05:26:15;;;;;;;10.18;3.20;;;;;;;;;;5025860;28;20049;-72
2022/05/24 05:28:42;;;;;;;13.00;3.08;;;;;;;;;;5020751;28;20052;-72
2022/05/24 05:31:19;;;;;;;9.50;1.70;;;;;;;;;;5025473;28;20045;-72
2022/05/24 05:33:47;;;;;;;7.35;1.33;;;;;;;;;;5022782;28;20025;-72
2022/05/24 05:36:14;;;;;;;7.38;1.45;;;;;;;;;;5022850;28;20775;-71
2022/05/24 05:38:45;;;;;;;7.00;0.90;;;;;;;;;;5026236;28;20063;-72
2022/05/24 05:41:11;;;;;;;4.00;0.77;;;;;;;;;;5024006;28;20048;-72
2022/05/24 05:43:37;;;;;;;2.72;0.63;;;;;;;;;;5018044;28;20038;-72
2022/05/24 05:46:04;;;;;;;2.78;0.60;;;;;;;;;;5016747;28;20029;-72
2022/05/24 05:48:30;;;;;;;3.78;0.70;;;;;;;;;;5018571;28;20108;-72
2022/05/24 05:50:56;;;;;;;3.83;0.63;;;;;;;;;;5023427;28;20048;-72
2022/05/24 05:53:22;;;;;;;4.50;0.60;;;;;;;;;;5021737;28;20625;-72
2022/05/24 05:55:48;;;;;;;4.82;0.73;;;;;;;;;;5022384;28;20108;-72
2022/05/24 05:58:14;;;;;;;3.05;0.60;;;;;;;;;;5013097;28;20082;-72
2022/05/24 06:00:41;;;;;;;5.63;0.65;;;;;;;;;;5018712;28;20112;-72
2022/05/24 06:03:07;;;;;;;6.50;1.13;;;;;;;;;;5015308;28;20052;-72
2022/05/24 06:05:34;;;;;;;5.10;0.80;;;;;;;;;;5020617;28;20071;-72
2022/05/24 06:08:00;;;;;;;3.60;0.73;;;;;;;;;;5022351;28;20072;-72
2022/05/24 06:10:28;;;;;;;3.38;0.77;;;;;;;;;;5019018;28;20460;-72
2022/05/24 06:12:55;;;;;;;9.55;1.23;;;;;;;;;;5022015;28;20025;-72
2022/05/24 06:15:24;;;;;;;6.13;0.73;;;;;;;;;;5022607;28;20078;-72
2022/05/24 06:17:50;;;;;;;5.28;0.80;;;;;;;;;;5018021;28;20052;-72
2022/05/24 06:20:17;;;;;;;6.65;0.60;;;;;;;;;;5016136;28;20099;-72
2022/05/24 06:22:43;;;;;;;4.18;0.60;;;;;;;;;;5020070;28;20038;-73
2022/05/24 06:25:10;;;;;;;3.88;0.65;;;;;;;;;;5015714;28;20048;-72
2022/05/24 06:27:36;;;;;;;2.20;0.40;;;;;;;;;;5016139;28;20632;-72
2022/05/24 06:30:03;;;;;;;4.50;0.55;;;;;;;;;;5019467;28;20029;-72
2022/05/24 06:32:30;;;;;;;6.07;1.00;;;;;;;;;;5017340;28;20044;-72
2022/05/24 06:34:56;;;;;;;4.88;0.40;;;;;;;;;;5021084;28;20030;-71
2022/05/24 06:37:23;;;;;;;2.58;0.50;;;;;;;;;;5015642;28;20026;-72
2022/05/24 06:39:49;;;;;;;3.15;0.40;;;;;;;;;;5020085;28;20036;-72
2022/05/24 06:42:15;;;;;;;2.88;0.50;;;;;;;;;;5022188;28;20029;-72
2022/05/24 06:44:41;;;;;;;3.45;0.50;;;;;;;;;;5020101;28;20056;-72
2022/05/24 06:47:07;;;;;;;3.53;0.40;;;;;;;;;;5021030;28;20460;-72
2022/05/24 06:49:33;;;;;;;4.55;0.32;;;;;;;;;;5022676;28;20037;-72
2022/05/24 06:52:00;;;;;;;1.80;0.40;;;;;;;;;;5021031;28;20521;-72
2022/05/24 06:54:26;;;;;;;4.07;0.40;;;;;;;;;;5018564;28;20045;-72
2022/05/24 06:56:52;;;;;;;3.75;0.30;;;;;;;;;;5024434;28;20100;-72
2022/05/24 07:04:47;;;;;;;1.55;0.40;;;;;;;;;;5018170;28;20951;-72
2022/05/24 07:07:13;;;;;;;3.72;0.50;;;;;;;;;;5020336;28;20033;-72
2022/05/24 07:09:40;;;;;;;2.35;0.40;;;;;;;;;;5021702;28;20037;-72
2022/05/24 07:12:06;;;;;;;2.22;0.40;;;;;;;;;;5015943;28;20023;-72
2022/05/24 07:14:36;;;;;;;1.85;0.30;;;;;;;;;;5019752;28;20805;-72
2022/05/24 07:17:02;;;;;;;2.38;0.30;;;;;;;;;;5021893;28;20470;-72
2022/05/24 07:19:29;;;;;;;1.20;0.20;;;;;;;;;;5018337;28;20034;-72
2022/05/24 07:21:55;;;;;;;1.05;0.20;;;;;;;;;;5018496;28;20116;-72
2022/05/24 07:24:21;;;;;;;2.13;0.30;;;;;;;;;;5019396;28;20063;-72
2022/05/24 07:26:47;;;;;;;4.88;0.30;;;;;;;;;;5022147;28;20071;-72
2022/05/24 07:29:13;;;;;;;0.50;0.30;;;;;;;;;;5020529;28;20038;-72
2022/05/24 07:31:39;;;;;;;6.70;0.40;;;;;;;;;;5021404;28;20033;-71
2022/05/24 07:34:06;;;;;;;0.90;0.20;;;;;;;;;;5023533;28;20052;-72
2022/05/24 07:36:32;;;;;;;2.92;0.30;;;;;;;;;;5021262;28;20034;-72
2022/05/24 07:39:01;;;;;;;2.60;1.48;;;;;;;;;;5021089;28;20037;-72
2022/05/24 07:46:56;;;;;;;1.25;0.15;;;;;;;;;;5017012;28;20128;-72
2022/05/24 07:49:23;;;;;;;2.92;0.30;;;;;;;;;;5019463;28;20133;-72
2022/05/24 07:51:49;;;;;;;3.80;0.30;;;;;;;;;;5014974;28;20080;-71
2022/05/24 07:54:15;;;;;;;1.98;0.40;;;;;;;;;;5014905;28;20040;-72
2022/05/24 07:56:42;;;;;;;2.85;0.30;;;;;;;;;;5020942;28;20033;-72
2022/05/24 07:59:09;;;;;;;1.88;0.20;;;;;;;;;;5017599;28;20120;-72
2022/05/24 08:01:36;;;;;;;5.03;0.40;;;;;;;;;;5020086;28;20037;-72
2022/05/24 08:04:02;;;;;;;3.33;0.30;;;;;;;;;;5019280;28;20874;-72
2022/05/24 08:06:28;;;;;;;2.85;0.30;;;;;;;;;;5021176;28;20808;-72
2022/05/24 08:08:54;;;;;;;2.67;0.60;;;;;;;;;;5022554;28;20132;-72
2022/05/24 08:11:20;;;;;;;1.80;0.32;;;;;;;;;;5015492;28;20117;-72
2022/05/24 08:13:47;;;;;;;2.60;0.47;;;;;;;;;;5012609;28;20030;-72
2022/05/24 08:16:13;;;;;;;3.38;0.40;;;;;;;;;;5016853;28;20473;-72
2022/05/24 08:18:39;;;;;;;0.82;0.20;;;;;;;;;;5020301;28;20766;-72
2022/05/24 08:21:05;;;;;;;1.48;0.20;;;;;;;;;;5016274;28;20112;-72
2022/05/24 08:23:31;;;;;;;1.40;0.20;;;;;;;;;;5020907;28;20026;-73
2022/05/24 08:25:58;;;;;;;0.93;0.20;;;;;;;;;;5029004;28;20156;-72
2022/05/24 08:28:24;;;;;;;4.07;0.50;;;;;;;;;;5019100;28;20042;-72
2022/05/24 08:30:56;;;;;;;2.33;0.45;;;;;;;;;;5024938;28;20033;-72
2022/05/24 08:33:23;;;;;;;3.55;0.40;;;;;;;;;;5024644;28;20074;-72
2022/05/24 08:35:50;;;;;;;3.80;0.35;;;;;;;;;;5022011;28;20040;-72
2022/05/24 08:38:16;;;;;;;5.07;0.40;;;;;;;;;;5019633;28;20052;-72
2022/05/24 08:40:44;;;;;;;2.17;0.57;;;;;;;;;;5021854;28;20112;-72
2022/05/24 08:43:29;;;;;;;2.75;0.30;;;;;;;;;;5022230;28;20068;-72
2022/05/24 08:49:13;;;;;;;3.20;0.38;;;;;;;;;;5023255;28;20065;-72
2022/05/24 08:51:39;;;;;;;2.10;0.30;;;;;;;;;;5023193;28;20119;-72
2022/05/24 08:54:10;;;;;;;4.05;0.57;;;;;;;;;;5022344;28;20034;-72
2022/05/24 08:56:59;;;;;;;4.78;0.38;;;;;;;;;;5021957;28;20163;-72
2022/05/24 08:59:29;;;;;;;1.90;0.38;;;;;;;;;;4997878;28;20045;-72
2022/05/24 09:01:56;;;;;;;3.30;0.40;;;;;;;;;;5024294;28;20045;-72
2022/05/24 09:04:22;;;;;;;1.33;0.30;;;;;;;;;;5025436;28;20056;-71
2022/05/24 09:07:02;;;;;;;2.65;0.30;;;;;;;;;;5022993;28;20100;-72
2022/05/24 09:09:46;;;;;;;1.52;0.40;;;;;;;;;;5021662;28;20033;-72
2022/05/24 09:12:27;;;;;;;2.72;0.40;;;;;;;;;;5020830;28;20034;-72
2022/05/24 09:15:11;;;;;;;3.15;0.47;;;;;;;;;;5020978;28;20067;-72
2022/05/24 09:17:56;;;;;;;3.20;0.40;;;;;;;;;;5037731;28;20506;-72
2022/05/24 09:20:26;;;;;;;2.13;0.30;;;;;;;;;;5024390;28;20037;-72
2022/05/24 09:23:01;;;;;;;2.67;0.68;;;;;;;;;;5022865;28;20041;-72
2022/05/24 09:25:27;;;;;;;1.77;0.40;;;;;;;;;;5024882;28;20025;-72
2022/05/24 09:27:55;;;;;;;1.15;0.30;;;;;;;;;;5023411;28;20060;-72
2022/05/24 09:30:21;;;;;;;3.72;0.30;;;;;;;;;;5021928;28;20061;-72
2022/05/24 09:32:47;;;;;;;2.67;0.30;;;;;;;;;;5021473;28;20120;-71
2022/05/24 09:35:16;;;;;;;2.10;0.45;;;;;;;;;;5023190;28;20029;-72
2022/05/24 09:37:44;;;;;;;2.72;0.30;;;;;;;;;;5024420;28;20049;-72
2022/05/24 09:40:23;;;;;;;2.35;0.50;;;;;;;;;;5021962;28;20364;-72
2022/05/24 09:42:50;;;;;;;3.50;0.40;;;;;;;;;;5024809;28;20052;-72
2022/05/24 09:45:22;;;;;;;2.25;0.43;;;;;;;;;;5022239;28;20033;-72
2022/05/24 09:47:48;;;;;;;;;;;;;;;;;;5021350;28;20043;-73
2022/05/24 09:50:20;;;;;;;3.97;0.40;;;;;;;;;;5021796;28;20263;-72
2022/05/24 09:53:05;;;;;;;2.05;0.30;;;;;;;;;;5023192;28;20026;-72
2022/05/24 09:55:44;;;;;;;3.75;0.40;;;;;;;;;;5023070;28;20048;-71
2022/05/24 09:58:16;;;;;;;2.97;0.60;;;;;;;;;;5021483;28;20714;-72
2022/05/24 10:00:57;;;;;;;2.72;0.52;;;;;;;;;;5022229;28;20034;-72
2022/05/24 10:03:24;;;;;;;1.95;0.40;;;;;;;;;;5020867;28;20057;-72
2022/05/24 10:05:56;;;;;;;3.30;0.47;;;;;;;;;;5022615;28;20059;-72
2022/05/24 10:08:22;;;;;;;4.90;0.40;;;;;;;;;;5022839;28;20033;-72
2022/05/24 10:10:52;;;;;;;3.83;0.60;;;;;;;;;;5024092;28;20375;-72
2022/05/24 10:13:27;;;;;;;2.67;0.40;;;;;;;;;;5017700;28;20034;-72
2022/05/24 10:16:04;;;;;;;1.50;0.40;;;;;;;;;;5017204;28;20108;-72
2022/05/24 10:18:49;;;;;;;1.90;0.50;;;;;;;;;;5024274;28;20038;-71
2022/05/24 10:21:34;;;;;;;4.63;0.65;;;;;;;;;;5019872;28;20045;-72
2022/05/24 10:24:00;;;;;;;1.60;0.47;;;;;;;;;;5016387;28;20073;-71
2022/05/24 10:26:28;;;;;;;3.72;0.40;;;;;;;;;;5019971;28;20057;-72
2022/05/24 10:29:10;;;;;;;3.53;0.60;;;;;;;;;;5022923;28;20037;-72
2022/05/24 10:31:56;;;;;;;3.88;0.60;;;;;;;;;;5024930;28;20395;-72
2022/05/24 10:40:25;;;;;;;7.00;1.10;;;;;;;;;;5021966;28;20064;-72
2022/05/24 10:43:01;;;;;;;5.35;0.43;;;;;;;;;;5017291;28;20037;-72
2022/05/24 10:45:49;;;;;;;2.65;0.65;;;;;;;;;;5023202;28;20607;-72
2022/05/24 10:48:18;;;;;;;2.08;0.40;;;;;;;;;;5013639;28;20038;-72
2022/05/24 10:50:52;;;;;;;4.07;0.50;;;;;;;;;;5019498;28;20057;-72
2022/05/24 10:53:25;;;;;;;2.38;0.30;;;;;;;;;;5019382;28;20414;-72
2022/05/24 10:55:57;;;;;;;1.65;0.30;;;;;;;;;;5019698;28;20033;-72
2022/05/24 10:58:24;;;;;;;0.88;0.30;;;;;;;;;;5016433;28;20036;-72
2022/05/24 11:00:52;;;;;;;2.58;0.40;;;;;;;;;;5022808;28;20123;-72
2022/05/24 11:03:20;;;;;;;2.38;0.38;;;;;;;;;;5023693;28;20093;-71
2022/05/24 11:05:46;;;;;;;2.78;0.30;;;;;;;;;;5020444;28;20621;-72
2022/05/24 11:08:30;;;;;;;3.63;0.60;;;;;;;;;;5014490;28;20041;-72
2022/05/24 11:10:59;;;;;;;3.55;0.30;;;;;;;;;;5021563;28;20079;-72
2022/05/24 11:13:40;;;;;;;1.27;0.30;;;;;;;;;;5023035;28;20045;-72
2022/05/24 11:16:11;;;;;;;6.55;0.90;;;;;;;;;;5019709;28;20060;-71
2022/05/24 11:18:39;;;;;;;4.07;0.75;;;;;;;;;;5019560;28;20087;-71
2022/05/24 11:21:22;;;;;;;3.78;0.40;;;;;;;;;;5022239;28;20466;-72
2022/05/24 11:23:48;;;;;;;1.52;0.30;;;;;;;;;;5017234;28;20557;-72
2022/05/24 11:26:25;;;;;;;4.25;0.40;;;;;;;;;;5020667;28;20065;-72
2022/05/24 11:28:54;;;;;;;3.30;0.40;;;;;;;;;;5022738;28;20046;-72
2022/05/24 11:31:21;;;;;;;1.38;0.40;;;;;;;;;;5014962;28;20029;-72
2022/05/24 11:33:48;;;;;;;2.28;0.50;;;;;;;;;;5016684;28;20116;-72
2022/05/24 11:36:33;;;;;;;2.17;0.40;;;;;;;;;;5015612;28;20750;-73
2022/05/24 11:39:06;;;;;;;2.78;0.40;;;;;;;;;;5019328;28;20601;-72
2022/05/24 11:41:32;;;;;;;2.72;0.50;;;;;;;;;;5017451;28;20117;-72
2022/05/24 11:44:00;;;;;;;2.92;0.40;;;;;;;;;;5023502;28;20554;-72
2022/05/24 11:46:38;;;;;;;3.83;0.43;;;;;;;;;;5017854;28;20088;-72
2022/05/24 11:49:09;;;;;;;2.22;0.50;;;;;;;;;;5020433;28;20033;-72
2022/05/24 11:51:41;;;;;;;2.83;0.50;;;;;;;;;;5021405;28;20064;-71
2022/05/24 11:54:07;;;;;;;;;;;;;;;;;;5023836;28;20029;-72
2022/05/24 11:56:34;;;;;;;2.55;0.50;;;;;;;;;;5019974;28;19968;-72
2022/05/24 11:59:04;;;;;;;1.83;0.40;;;;;;;;;;5021707;28;20041;-72
2022/05/24 12:01:35;;;;;;;3.78;0.45;;;;;;;;;;5023170;28;20447;-71
2022/05/24 12:10:25;;;;;;;1.38;0.40;;;;;;;;;;4986408;28;20045;-72
2022/05/24 12:12:57;;;;;;;5.40;0.55;;;;;;;;;;5018083;28;20071;-72
2022/05/24 12:15:23;;;;;;;0.70;0.30;;;;;;;;;;5023901;28;20379;-72
2022/05/24 12:18:12;;;;;;;4.47;0.50;;;;;;;;;;5022591;28;20045;-72
2022/05/24 12:20:38;;;;;;;2.13;0.30;;;;;;;;;;5022990;28;20030;-72
2022/05/24 12:23:07;;;;;;;3.10;0.35;;;;;;;;;;5022149;28;20639;-72
2022/05/24 12:26:08;;;;;;;3.17;0.45;;;;;;;;;;5024511;28;20037;-72
2022/05/24 12:28:34;;;;;;;1.40;0.28;;;;;;;;;;4981387;28;20924;-72
2022/05/24 12:31:01;;;;;;;1.83;0.30;;;;;;;;;;5014167;28;20076;-72
2022/05/24 12:33:46;;;;;;;5.53;0.47;;;;;;;;;;5020802;28;20041;-72
2022/05/24 12:36:31;;;;;;;3.45;0.63;;;;;;;;;;5023160;28;20025;-71
2022/05/24 12:39:00;;;;;;;1.45;0.38;;;;;;;;;;5026198;28;20044;-72
2022/05/24 12:41:28;;;;;;;3.20;0.57;;;;;;;;;;5018095;28;20033;-72
2022/05/24 12:44:00;;;;;;;6.68;0.40;;;;;;;;;;5025104;28;20033;-71
2022/05/24 12:46:27;;;;;;;;;;;;;;;;;;5022967;28;20030;-72
2022/05/24 12:48:58;;;;;;;1.73;0.30;;;;;;;;;;5025568;28;19921;-72
2022/05/24 12:51:24;;;;;;;2.40;0.22;;;;;;;;;;5020586;28;20061;-72
2022/05/24 12:53:50;;;;;;;2.53;0.30;;;;;;;;;;5019519;28;20125;-72
2022/05/24 12:56:19;;;;;;;1.63;0.40;;;;;;;;;;5020639;28;20037;-71
2022/05/24 12:58:46;;;;;;;5.30;0.40;;;;;;;;;;5020644;28;20471;-72
2022/05/24 13:01:25;;;;;;;2.30;0.60;;;;;;;;;;5021289;28;20033;-72
2022/05/24 13:04:09;;;;;;;3.78;0.55;;;;;;;;;;5027735;28;20076;-72
2022/05/24 13:06:37;;;;;;;2.78;0.47;;;;;;;;;;5023856;28;20455;-72
2022/05/24 13:09:23;;;;;;;5.38;0.70;;;;;;;;;;5024058;28;20034;-72
2022/05/24 13:12:09;;;;;;;4.47;0.70;;;;;;;;;;5023230;28;20028;-72
2022/05/24 13:14:56;;;;;;;4.30;0.40;;;;;;;;;;5018187;28;20108;-72
2022/05/24 13:17:23;;;;;;;3.97;0.52;;;;;;;;;;5020350;28;20128;-72
2022/05/24 13:19:54;;;;;;;2.95;0.65;;;;;;;;;;5020379;28;20762;-72
2022/05/24 13:22:21;;;;;;;8.45;0.70;;;;;;;;;;5025572;28;20426;-72
2022/05/24 13:24:49;;;;;;;2.72;0.40;;;;;;;;;;5024949;28;20171;-72
2022/05/24 13:27:15;;;;;;;3.97;0.35;;;;;;;;;;5024294;28;21272;-72
2022/05/24 13:35:11;;;;;;;1.95;0.43;;;;;;;;;;5017784;28;20040;-72
2022/05/24 13:37:47;;;;;;;1.40;0.40;;;;;;;;;;5023889;28;20060;-72
2022/05/24 13:40:13;;;;;;;2.63;0.40;;;;;;;;;;5020492;28;20106;-72
2022/05/24 13:42:51;;;;;;;2.28;0.30;;;;;;;;;;5021414;28;20034;-72
2022/05/24 13:45:19;;;;;;;3.15;0.50;;;;;;;;;;5025445;28;20026;-71
2022/05/24 13:47:51;;;;;;;3.95;0.50;;;;;;;;;;5021872;28;20762;-72
2022/05/24 13:50:27;;;;;;;2.03;0.57;;;;;;;;;;5023203;28;20471;-72
2022/05/24 13:52:55;;;;;;;4.20;0.55;;;;;;;;;;5024517;28;20029;-72
2022/05/24 13:55:23;;;;;;;4.40;0.40;;;;;;;;;;5024744;28;20052;-73
2022/05/24 13:57:52;;;;;;;2.67;0.40;;;;;;;;;;5021980;28;20036;-72
2022/05/24 14:00:27;;;;;;;2.10;0.40;;;;;;;;;;5020850;28;20037;-72
2022/05/24 14:02:54;;;;;;;1.83;0.30;;;;;;;;;;5020905;28;20040;-72
2022/05/24 14:05:29;;;;;;;3.42;0.95;;;;;;;;;;5024132;28;20121;-72
2022/05/24 14:07:55;;;;;;;3.30;0.40;;;;;;;;;;5022953;28;20083;-72
2022/05/24 14:10:21;;;;;;;2.92;0.50;;;;;;;;;;5023117;28;20648;-72
2022/05/24 14:12:47;;;;;;;5.72;0.38;;;;;;;;;;5015832;28;20068;-72
2022/05/24 14:15:13;;;;;;;1.48;0.30;;;;;;;;;;5024578;28;20033;-72
2022/05/24 14:17:39;;;;;;;3.10;0.73;;;;;;;;;;5019654;28;20498;-72
2022/05/24 14:20:05;;;;;;;1.58;0.30;;;;;;;;;;5018844;28;20033;-72
2022/05/24 14:22:32;;;;;;;1.13;0.50;;;;;;;;;;5022952;28;20116;-72
2022/05/24 14:24:58;;;;;;;2.28;0.50;;;;;;;;;;5018161;28;20028;-72
2022/05/24 14:27:24;;;;;;;5.65;0.50;;;;;;;;;;5020087;28;20045;-72
2022/05/24 14:29:50;;;;;;;3.47;0.50;;;;;;;;;;5021594;28;20032;-72
2022/05/24 14:32:16;;;;;;;6.55;0.60;;;;;;;;;;5022158;28;20117;-72
2022/05/24 14:34:42;;;;;;;3.35;0.40;;;;;;;;;;5019529;28;20029;-72
2022/05/24 14:37:08;;;;;;;5.38;0.60;;;;;;;;;;5018884;28;20138;-72
2022/05/24 14:39:35;;;;;;;3.45;0.60;;;;;;;;;;5022868;28;20083;-72
2022/05/24 14:42:01;;;;;;;2.33;0.60;;;;;;;;;;5025151;28;20044;-72
2022/05/24 14:44:28;;;;;;;1.73;0.40;;;;;;;;;;5022522;28;20044;-72
2022/05/24 14:46:55;;;;;;;3.08;0.40;;;;;;;;;;5022021;28;20619;-72
2022/05/24 14:49:22;;;;;;;3.05;0.40;;;;;;;;;;5019808;28;20486;-71
2022/05/24 14:51:50;;;;;;;3.92;0.40;;;;;;;;;;5021118;28;20032;-72
2022/05/24 14:54:16;;;;;;;4.18;0.50;;;;;;;;;;5015381;28;20813;-72
2022/05/24 14:56:43;;;;;;;2.20;0.52;;;;;;;;;;5021257;28;20044;-72
2022/05/24 14:59:09;;;;;;;2.72;0.50;;;;;;;;;;5015402;28;20537;-72
2022/05/24 15:01:35;;;;;;;2.60;0.40;;;;;;;;;;5020246;28;20033;-72
2022/05/24 15:04:01;;;;;;;1.63;0.55;;;;;;;;;;5023027;28;20505;-72
2022/05/24 15:06:27;;;;;;;1.95;0.50;;;;;;;;;;5021340;28;20048;-72
2022/05/24 15:17:37;;;;;;;0.70;0.30;;;;;;;;;;5019485;28;20126;-72
2022/05/24 15:20:23;;;;;;;4.90;0.47;;;;;;;;;;5017773;28;20024;-72
2022/05/24 15:22:59;;;;;;;2.72;0.40;;;;;;;;;;5022527;28;20056;-72
2022/05/24 15:25:51;;;;;;;2.30;0.30;;;;;;;;;;5020383;28;20657;-72
2022/05/24 15:28:18;;;;;;;2.60;0.40;;;;;;;;;;5016976;28;20644;-72
2022/05/24 15:30:46;;;;;;;3.60;0.40;;;;;;;;;;5019835;28;20063;-72
2022/05/24 15:33:12;;;;;;;2.80;0.65;;;;;;;;;;5026936;28;20112;-72
2022/05/24 15:35:39;;;;;;;4.93;0.45;;;;;;;;;;5027638;28;20370;-72
2022/05/24 15:38:05;;;;;;;3.72;0.40;;;;;;;;;;5020569;28;20034;-72
2022/05/24 15:40:33;;;;;;;3.35;0.57;;;;;;;;;;5024238;28;20041;-72
2022/05/24 15:43:00;;;;;;;3.00;0.60;;;;;;;;;;5022050;28;20037;-72
2022/05/24 15:45:26;;;;;;;3.40;0.60;;;;;;;;;;5015566;28;20037;-72